Terminal Aerodrome Forecast
Issued by NWS Lake Charles, LA

Home | Current Version | Previous Version | Text Only | Print | Product List | Glossary On
Versions: 1 2 3 4 5 6 7 8 9 10 11 12 13 14 15 16 17 18
688
FTUS44 KLCH 231139
TAFBPT
TAF
KBPT 231139Z 2312/2412 18008KT 3SM BR OVC002
      TEMPO 2312/2314 1/2SM FG VV002
     FM231500 14008KT P6SM BKN008 OVC015
     FM231800 15011KT P6SM BKN025
     FM240200 14008KT P6SM OVC007=

USA.gov is the U.S. government's official web portal to all federal, state and local government web resources and services.